createdAt,value
2023-03-19T00:03:50.413Z,10.57
2023-03-19T00:07:49.678Z,10.62
2023-03-19T00:11:49.004Z,10.72
2023-03-19T00:15:48.636Z,10.72
2023-03-19T00:19:50.139Z,10.88
2023-03-19T00:23:48.929Z,10.96
2023-03-19T00:27:48.336Z,10.80
2023-03-19T00:31:47.675Z,10.83
2023-03-19T00:35:49.145Z,10.90
2023-03-19T00:39:48.059Z,10.90
2023-03-19T00:43:47.374Z,10.81
2023-03-19T00:47:46.692Z,10.54
2023-03-19T00:51:48.123Z,10.58
2023-03-19T00:55:47.016Z,10.48
2023-03-19T00:59:46.335Z,10.10
2023-03-19T01:03:46.014Z,9.78
2023-03-19T01:07:47.658Z,9.59
2023-03-19T01:11:46.942Z,9.68
2023-03-19T01:15:46.369Z,9.83
2023-03-19T01:19:45.151Z,9.86
2023-03-19T01:23:46.672Z,9.89
2023-03-19T01:27:46.191Z,10.05
2023-03-19T01:31:46.418Z,9.77
2023-03-19T01:35:47.328Z,9.50
2023-03-19T01:39:49.561Z,9.25
2023-03-19T01:43:48.558Z,9.32
2023-03-19T01:47:47.901Z,9.17
2023-03-19T01:51:49.271Z,9.22
2023-03-19T01:55:50.682Z,9.39
2023-03-19T01:59:53.453Z,9.60
2023-03-19T02:03:53.737Z,9.74
2023-03-19T02:07:54.941Z,9.62
2023-03-19T02:11:56.554Z,9.68
2023-03-19T02:15:56.476Z,9.67
2023-03-19T02:19:59.574Z,9.61
2023-03-19T02:24:02.323Z,9.65
2023-03-19T02:28:05.714Z,9.74
2023-03-19T02:32:05.500Z,9.73
2023-03-19T02:36:05.873Z,9.85
2023-03-19T02:40:07.588Z,9.75
2023-03-19T02:44:09.620Z,9.72
2023-03-19T02:48:08.896Z,9.65
2023-03-19T02:52:07.868Z,9.65
2023-03-19T02:56:07.393Z,9.48
2023-03-19T03:00:10.397Z,9.52
2023-03-19T03:04:09.217Z,9.42
2023-03-19T03:08:08.955Z,9.07
2023-03-19T03:12:08.186Z,8.72
2023-03-19T03:16:10.054Z,8.28
2023-03-19T03:20:11.041Z,7.94
2023-03-19T03:24:11.095Z,7.49
2023-03-19T03:28:10.365Z,7.18
2023-03-19T03:32:11.768Z,6.97
2023-03-19T03:36:11.125Z,6.81
2023-03-19T03:40:24.620Z,6.84
2023-03-19T03:44:23.407Z,7.11
2023-03-19T03:48:24.854Z,7.22
2023-03-19T03:52:23.732Z,7.31
2023-03-19T03:56:23.034Z,7.19
2023-03-19T04:00:22.249Z,6.73
2023-03-19T04:04:23.781Z,6.52
2023-03-19T04:08:23.122Z,6.41
2023-03-19T04:12:22.704Z,6.54
2023-03-19T04:16:22.086Z,6.45
2023-03-19T04:20:23.903Z,6.35
2023-03-19T04:24:25.318Z,6.48
2023-03-19T04:28:32.668Z,6.41
2023-03-19T04:32:35.643Z,6.14
2023-03-19T04:36:56.156Z,6.16
2023-03-19T04:41:01.275Z,5.97
2023-03-19T04:45:04.270Z,5.87
2023-03-19T04:49:06.516Z,6.10
2023-03-19T04:53:06.094Z,6.06
2023-03-19T04:57:09.775Z,5.95
2023-03-19T05:06:32.289Z,6.22
2023-03-19T05:10:45.654Z,6.39
2023-03-19T05:14:59.068Z,6.56
2023-03-19T05:19:32.021Z,6.97
2023-03-19T05:23:41.046Z,7.11
2023-03-19T05:27:42.789Z,7.25
2023-03-19T05:31:44.742Z,7.28
2023-03-19T05:35:45.473Z,7.23
2023-03-19T05:39:45.782Z,7.05
2023-03-19T05:43:46.204Z,7.46
2023-03-19T05:47:50.933Z,7.73
2023-03-19T05:51:51.218Z,8.10
2023-03-19T05:55:51.966Z,8.53
2023-03-19T06:00:01.949Z,8.65
2023-03-19T06:04:06.907Z,8.85
2023-03-19T06:08:13.866Z,8.76
2023-03-19T06:12:16.149Z,8.88
2023-03-19T06:16:21.930Z,9.18
2023-03-19T06:20:29.375Z,9.39
2023-03-19T06:24:33.446Z,9.57
2023-03-19T06:28:32.686Z,9.15
2023-03-19T06:32:36.625Z,8.75
2023-03-19T06:36:42.029Z,9.04
2023-03-19T06:40:43.895Z,8.73
2023-03-19T06:44:53.474Z,8.27
2023-03-19T06:48:53.033Z,8.28
2023-03-19T06:52:55.446Z,8.37
2023-03-19T06:56:57.285Z,8.78
2023-03-19T07:00:56.341Z,9.23
2023-03-19T07:04:55.569Z,9.16
2023-03-19T07:08:57.296Z,9.44
2023-03-19T07:12:56.768Z,9.25
2023-03-19T07:16:56.553Z,10.10
2023-03-19T07:20:58.639Z,10.58
2023-03-19T07:25:01.283Z,10.86
2023-03-19T07:29:05.998Z,10.94
2023-03-19T07:33:07.695Z,11.33
2023-03-19T07:37:07.184Z,11.59
2023-03-19T07:41:12.764Z,11.76
2023-03-19T07:45:12.023Z,12.66
2023-03-19T07:49:11.584Z,12.66
2023-03-19T07:53:10.814Z,12.82
2023-03-19T07:57:13.574Z,12.87
2023-03-19T08:01:12.819Z,12.07
2023-03-19T08:05:14.917Z,12.12
2023-03-19T08:09:14.217Z,12.23
2023-03-19T08:13:16.089Z,12.27
2023-03-19T08:17:15.664Z,11.73
2023-03-19T08:21:17.903Z,11.68
2023-03-19T08:25:21.602Z,12.07
2023-03-19T08:29:22.513Z,11.69
2023-03-19T08:33:21.692Z,11.83
2023-03-19T08:37:20.950Z,11.57
2023-03-19T08:41:20.213Z,11.71
2023-03-19T08:45:27.580Z,11.02
2023-03-19T08:49:26.985Z,11.15
2023-03-19T08:53:28.178Z,11.53
2023-03-19T08:57:30.692Z,11.28
2023-03-19T09:01:32.284Z,11.67
2023-03-19T09:05:32.003Z,12.21
2023-03-19T09:09:39.925Z,11.97
2023-03-19T09:13:39.622Z,12.64
2023-03-19T09:17:41.593Z,13.05
2023-03-19T09:21:46.530Z,12.43
2023-03-19T09:25:49.482Z,13.15
2023-03-19T09:29:51.743Z,13.29
2023-03-19T09:33:53.321Z,13.21
2023-03-19T09:37:55.393Z,13.12
2023-03-19T09:42:03.881Z,12.89
2023-03-19T09:46:05.958Z,13.33
2023-03-19T09:50:11.176Z,13.65
2023-03-19T09:54:18.344Z,13.49
2023-03-19T09:58:19.267Z,14.09
2023-03-19T10:02:28.944Z,14.43
2023-03-19T10:06:33.434Z,14.56
2023-03-19T10:10:41.858Z,14.28
2023-03-19T10:14:49.779Z,13.96
2023-03-19T10:18:52.398Z,14.06
2023-03-19T10:22:57.332Z,14.08
2023-03-19T10:27:00.330Z,13.98
2023-03-19T10:31:03.939Z,13.90
2023-03-19T10:35:06.833Z,14.06
2023-03-19T10:39:08.805Z,14.07
2023-03-19T10:43:15.371Z,14.36
2023-03-19T10:47:15.958Z,14.28
2023-03-19T10:51:16.945Z,14.39
2023-03-19T10:55:19.582Z,14.45
2023-03-19T10:59:26.911Z,14.05
2023-03-19T11:03:31.757Z,14.73
2023-03-19T11:07:34.241Z,14.81
2023-03-19T11:11:44.394Z,15.10
2023-03-19T11:15:44.121Z,15.25
2023-03-19T11:19:43.807Z,15.01
2023-03-19T11:23:44.280Z,14.96
2023-03-19T11:28:00.730Z,15.08
2023-03-19T11:32:20.397Z,15.29
2023-03-19T11:36:23.194Z,15.29
2023-03-19T11:40:27.262Z,15.19
2023-03-19T11:44:29.890Z,15.27
2023-03-19T11:48:37.898Z,15.22
2023-03-19T11:52:39.387Z,15.34
2023-03-19T11:56:50.734Z,15.48
2023-03-19T12:00:53.745Z,15.13
2023-03-19T12:05:06.691Z,15.83
2023-03-19T12:09:08.977Z,15.49
2023-03-19T12:13:19.263Z,15.51
2023-03-19T12:17:26.255Z,15.55
2023-03-19T12:21:33.809Z,15.47
2023-03-19T12:25:38.548Z,15.85
2023-03-19T12:29:44.298Z,15.60
2023-03-19T12:33:48.320Z,15.86
2023-03-19T12:37:53.350Z,15.90
2023-03-19T12:41:53.570Z,16.09
2023-03-19T12:45:58.151Z,16.20
2023-03-19T12:50:02.428Z,16.10
2023-03-19T12:54:04.863Z,16.00
2023-03-19T12:58:06.454Z,16.60
2023-03-19T13:02:11.803Z,16.72
2023-03-19T13:06:17.810Z,17.04
2023-03-19T13:10:20.311Z,16.56
2023-03-19T13:14:23.572Z,16.46
2023-03-19T13:18:31.531Z,16.47
2023-03-19T13:22:36.380Z,16.70
2023-03-19T13:26:37.031Z,17.02
2023-03-19T13:30:39.049Z,17.41
2023-03-19T13:34:39.347Z,17.10
2023-03-19T13:38:43.090Z,17.56
2023-03-19T13:42:45.236Z,17.29
2023-03-19T13:46:46.719Z,17.22
2023-03-19T13:50:56.598Z,17.38
2023-03-19T13:55:18.878Z,17.40
2023-03-19T13:59:24.988Z,17.77
2023-03-19T14:03:26.241Z,18.03
2023-03-19T14:07:28.497Z,17.63
2023-03-19T14:11:31.116Z,17.41
2023-03-19T14:15:31.305Z,17.29
2023-03-19T14:19:33.683Z,17.07
2023-03-19T14:23:42.036Z,17.20
2023-03-19T14:27:45.580Z,17.19
2023-03-19T14:31:48.803Z,17.10
2023-03-19T14:35:48.628Z,16.91
2023-03-19T14:39:52.124Z,17.06
2023-03-19T14:44:09.128Z,17.09
2023-03-19T14:48:17.064Z,17.14
2023-03-19T14:52:18.353Z,17.08
2023-03-19T14:56:18.798Z,17.08
2023-03-19T15:00:20.174Z,17.00
2023-03-19T15:04:23.168Z,17.09
2023-03-19T15:08:26.184Z,16.95
2023-03-19T15:12:33.959Z,16.85
2023-03-19T15:16:36.829Z,17.01
2023-03-19T15:20:41.379Z,16.92
2023-03-19T15:24:40.484Z,16.93
2023-03-19T15:28:58.501Z,17.00
2023-03-19T15:33:10.780Z,17.05
2023-03-19T15:37:18.139Z,17.28
2023-03-19T15:41:18.336Z,17.50
2023-03-19T15:45:19.583Z,17.75
2023-03-19T15:49:22.996Z,17.71
2023-03-19T15:53:26.636Z,17.78
2023-03-19T15:57:32.121Z,17.89
2023-03-19T16:01:33.215Z,17.99
2023-03-19T16:05:33.542Z,18.02
2023-03-19T16:09:36.107Z,17.75
2023-03-19T16:13:40.262Z,17.32
2023-03-19T16:17:42.249Z,16.86
2023-03-19T16:21:43.467Z,16.54
2023-03-19T16:25:46.215Z,16.20
2023-03-19T16:29:47.580Z,15.89
2023-03-19T16:33:47.261Z,15.51
2023-03-19T16:37:48.580Z,15.71
2023-03-19T16:42:00.422Z,15.72
2023-03-19T16:46:10.622Z,15.49
2023-03-19T16:50:12.930Z,15.33
2023-03-19T16:54:14.436Z,15.23
2023-03-19T16:58:19.273Z,15.19
2023-03-19T17:02:18.941Z,15.03
2023-03-19T17:06:34.746Z,14.91
2023-03-19T17:10:39.243Z,14.74
2023-03-19T17:14:41.214Z,14.56
2023-03-19T17:18:41.977Z,14.63
2023-03-19T17:22:41.607Z,14.71
2023-03-19T17:26:43.724Z,14.59
2023-03-19T17:30:53.216Z,14.22
2023-03-19T17:35:03.165Z,13.94
2023-03-19T17:39:02.649Z,13.87
2023-03-19T17:43:13.517Z,13.74
2023-03-19T17:47:18.116Z,13.50
2023-03-19T17:51:17.799Z,13.09
2023-03-19T17:55:18.005Z,12.80
2023-03-19T17:59:20.458Z,12.45
2023-03-19T18:03:40.286Z,12.33
2023-03-19T18:07:44.795Z,12.25
2023-03-19T18:11:43.667Z,12.30
2023-03-19T18:15:49.025Z,12.28
2023-03-19T18:19:52.099Z,11.96
2023-03-19T18:23:51.535Z,11.85
2023-03-19T18:27:51.471Z,11.82
2023-03-19T18:31:55.814Z,12.09
2023-03-19T18:36:05.965Z,12.11
2023-03-19T18:40:04.915Z,11.99
2023-03-19T18:44:04.376Z,12.02
2023-03-19T18:48:03.694Z,12.06
2023-03-19T18:52:09.900Z,11.98
2023-03-19T18:56:16.532Z,11.57
2023-03-19T19:00:19.571Z,11.22
2023-03-19T19:04:18.724Z,11.22
2023-03-19T19:08:23.174Z,11.51
2023-03-19T19:12:23.276Z,11.84
2023-03-19T19:16:26.235Z,11.99
2023-03-19T19:20:27.942Z,11.69
2023-03-19T19:24:32.366Z,11.34
2023-03-19T19:28:35.064Z,11.04
2023-03-19T19:32:35.999Z,10.95
2023-03-19T19:36:35.464Z,10.61
2023-03-19T19:40:37.482Z,10.51
2023-03-19T19:44:36.618Z,10.48
2023-03-19T19:48:36.768Z,10.46
2023-03-19T19:52:36.189Z,10.19
2023-03-19T19:56:44.646Z,10.04
2023-03-19T20:01:02.235Z,9.94
2023-03-19T20:05:05.703Z,9.93
2023-03-19T20:09:07.729Z,9.90
2023-03-19T20:13:15.090Z,9.88
2023-03-19T20:17:19.074Z,10.10
2023-03-19T20:21:20.973Z,10.48
2023-03-19T20:25:28.688Z,10.74
2023-03-19T20:29:34.990Z,10.99
2023-03-19T20:33:34.721Z,11.32
2023-03-19T20:37:34.513Z,11.55
2023-03-19T20:41:37.176Z,11.40
2023-03-19T20:45:40.345Z,11.40
2023-03-19T20:49:42.839Z,11.70
2023-03-19T20:53:42.376Z,11.61
2023-03-19T20:57:42.207Z,11.51
2023-03-19T21:01:43.881Z,11.20
2023-03-19T21:05:42.770Z,11.04
2023-03-19T21:09:42.246Z,10.92
2023-03-19T21:13:46.677Z,10.76
2023-03-19T21:17:48.798Z,10.33
2023-03-19T21:21:47.938Z,9.87
2023-03-19T21:25:48.870Z,9.23
2023-03-19T21:29:47.770Z,8.61
2023-03-19T21:33:50.176Z,8.26
2023-03-19T21:37:50.127Z,8.32
2023-03-19T21:41:50.005Z,8.46
2023-03-19T21:45:51.068Z,8.97
2023-03-19T21:49:55.856Z,9.24
2023-03-19T21:53:55.537Z,9.37
2023-03-19T21:57:59.159Z,9.35
2023-03-19T22:01:58.455Z,9.28
2023-03-19T22:06:00.409Z,9.10
2023-03-19T22:09:59.322Z,8.96
2023-03-19T22:14:04.497Z,8.99
2023-03-19T22:18:04.076Z,8.80
2023-03-19T22:22:05.962Z,8.38
2023-03-19T22:26:05.055Z,8.04
2023-03-19T22:30:04.932Z,7.87
2023-03-19T22:34:04.357Z,7.70
2023-03-19T22:38:05.281Z,7.65
2023-03-19T22:42:04.725Z,7.59
2023-03-19T22:46:08.743Z,7.58
2023-03-19T22:50:13.025Z,7.65
2023-03-19T22:54:15.338Z,7.79
2023-03-19T22:58:14.189Z,7.94
2023-03-19T23:02:14.811Z,8.07
2023-03-19T23:06:29.326Z,8.31
2023-03-19T23:10:32.594Z,8.65
2023-03-19T23:14:32.464Z,8.96
2023-03-19T23:18:32.288Z,9.17
2023-03-19T23:22:31.776Z,9.63
2023-03-19T23:26:34.647Z,9.88
2023-03-19T23:30:34.866Z,9.85
2023-03-19T23:34:42.571Z,9.81
2023-03-19T23:38:49.527Z,9.91
2023-03-19T23:42:54.644Z,9.95
2023-03-19T23:46:54.529Z,9.80
2023-03-19T23:50:53.595Z,9.71
2023-03-19T23:54:53.101Z,9.45
2023-03-19T23:58:55.461Z,9.41
